sensor_id;sensor_type;location;lat;lon;timestamp;temperature;humidity
31867;DHT22;18431;45.580;-122.680;2022-08-19T00:00:50;25.80;49.70
31867;DHT22;18431;45.580;-122.680;2022-08-19T00:03:21;25.70;49.80
31867;DHT22;18431;45.580;-122.680;2022-08-19T00:05:51;25.60;49.70
31867;DHT22;18431;45.580;-122.680;2022-08-19T00:08:22;25.50;49.80
31867;DHT22;18431;45.580;-122.680;2022-08-19T00:10:52;25.40;50.20
31867;DHT22;18431;45.580;-122.680;2022-08-19T00:13:24;25.40;50.40
31867;DHT22;18431;45.580;-122.680;2022-08-19T00:15:55;25.50;50.50
31867;DHT22;18431;45.580;-122.680;2022-08-19T00:18:27;25.50;50.30
31867;DHT22;18431;45.580;-122.680;2022-08-19T00:20:56;25.60;50.50
31867;DHT22;18431;45.580;-122.680;2022-08-19T00:23:27;25.70;50.30
31867;DHT22;18431;45.580;-122.680;2022-08-19T00:25:58;25.70;50.30
31867;DHT22;18431;45.580;-122.680;2022-08-19T00:28:28;25.80;50.20
31867;DHT22;18431;45.580;-122.680;2022-08-19T00:30:58;25.80;50.10
31867;DHT22;18431;45.580;-122.680;2022-08-19T00:33:30;25.90;50.10
31867;DHT22;18431;45.580;-122.680;2022-08-19T00:36:05;25.90;50.00
31867;DHT22;18431;45.580;-122.680;2022-08-19T00:38:37;26.00;50.20
31867;DHT22;18431;45.580;-122.680;2022-08-19T00:41:14;26.00;50.30
31867;DHT22;18431;45.580;-122.680;2022-08-19T00:46:38;26.10;50.60
31867;DHT22;18431;45.580;-122.680;2022-08-19T00:49:25;26.10;50.70
31867;DHT22;18431;45.580;-122.680;2022-08-19T00:51:56;26.10;50.80
31867;DHT22;18431;45.580;-122.680;2022-08-19T00:54:27;26.10;50.80
31867;DHT22;18431;45.580;-122.680;2022-08-19T00:56:59;26.00;50.50
31867;DHT22;18431;45.580;-122.680;2022-08-19T00:59:31;25.90;50.60
31867;DHT22;18431;45.580;-122.680;2022-08-19T01:02:01;25.70;50.70
31867;DHT22;18431;45.580;-122.680;2022-08-19T01:04:31;25.60;50.70
31867;DHT22;18431;45.580;-122.680;2022-08-19T01:07:04;25.50;50.80
31867;DHT22;18431;45.580;-122.680;2022-08-19T01:09:35;25.50;51.30
31867;DHT22;18431;45.580;-122.680;2022-08-19T01:12:05;25.50;51.30
31867;DHT22;18431;45.580;-122.680;2022-08-19T01:14:37;25.50;51.30
31867;DHT22;18431;45.580;-122.680;2022-08-19T01:17:10;25.50;51.40
31867;DHT22;18431;45.580;-122.680;2022-08-19T01:19:40;25.60;51.40
31867;DHT22;18431;45.580;-122.680;2022-08-19T01:22:34;25.70;51.40
31867;DHT22;18431;45.580;-122.680;2022-08-19T01:25:04;25.70;51.40
31867;DHT22;18431;45.580;-122.680;2022-08-19T01:27:45;25.80;51.30
31867;DHT22;18431;45.580;-122.680;2022-08-19T01:30:12;25.90;51.40
31867;DHT22;18431;45.580;-122.680;2022-08-19T01:32:41;25.90;51.40
31867;DHT22;18431;45.580;-122.680;2022-08-19T01:35:12;25.90;51.40
31867;DHT22;18431;45.580;-122.680;2022-08-19T01:37:44;26.00;51.40
31867;DHT22;18431;45.580;-122.680;2022-08-19T01:40:16;26.00;51.40
31867;DHT22;18431;45.580;-122.680;2022-08-19T01:42:45;26.00;51.40
31867;DHT22;18431;45.580;-122.680;2022-08-19T01:45:14;26.10;51.50
31867;DHT22;18431;45.580;-122.680;2022-08-19T01:47:44;26.10;51.50
31867;DHT22;18431;45.580;-122.680;2022-08-19T01:50:16;26.20;51.50
31867;DHT22;18431;45.580;-122.680;2022-08-19T01:52:46;26.20;51.50
31867;DHT22;18431;45.580;-122.680;2022-08-19T01:55:20;26.30;51.70
31867;DHT22;18431;45.580;-122.680;2022-08-19T01:57:52;26.20;51.50
31867;DHT22;18431;45.580;-122.680;2022-08-19T02:00:23;26.00;51.10
31867;DHT22;18431;45.580;-122.680;2022-08-19T02:02:53;25.90;50.90
31867;DHT22;18431;45.580;-122.680;2022-08-19T02:05:23;25.70;50.70
31867;DHT22;18431;45.580;-122.680;2022-08-19T02:07:53;25.50;50.60
31867;DHT22;18431;45.580;-122.680;2022-08-19T02:10:23;25.40;50.70
31867;DHT22;18431;45.580;-122.680;2022-08-19T02:12:54;25.30;51.40
31867;DHT22;18431;45.580;-122.680;2022-08-19T02:15:24;25.40;52.00
31867;DHT22;18431;45.580;-122.680;2022-08-19T02:17:54;25.50;51.20
31867;DHT22;18431;45.580;-122.680;2022-08-19T02:20:24;25.60;51.50
31867;DHT22;18431;45.580;-122.680;2022-08-19T02:22:54;25.60;51.40
31867;DHT22;18431;45.580;-122.680;2022-08-19T02:25:24;25.70;51.10
31867;DHT22;18431;45.580;-122.680;2022-08-19T02:27:54;25.80;50.90
31867;DHT22;18431;45.580;-122.680;2022-08-19T02:30:24;25.90;50.50
31867;DHT22;18431;45.580;-122.680;2022-08-19T02:32:54;26.00;50.40
31867;DHT22;18431;45.580;-122.680;2022-08-19T02:35:25;26.00;50.50
31867;DHT22;18431;45.580;-122.680;2022-08-19T02:37:55;26.10;50.60
31867;DHT22;18431;45.580;-122.680;2022-08-19T02:40:50;26.10;50.50
31867;DHT22;18431;45.580;-122.680;2022-08-19T02:43:23;26.20;50.30
31867;DHT22;18431;45.580;-122.680;2022-08-19T02:45:54;26.20;50.50
31867;DHT22;18431;45.580;-122.680;2022-08-19T02:48:25;26.20;50.50
31867;DHT22;18431;45.580;-122.680;2022-08-19T02:50:55;26.20;50.70
31867;DHT22;18431;45.580;-122.680;2022-08-19T02:53:26;26.30;50.60
31867;DHT22;18431;45.580;-122.680;2022-08-19T02:55:56;26.30;50.40
31867;DHT22;18431;45.580;-122.680;2022-08-19T02:58:26;26.40;50.30
31867;DHT22;18431;45.580;-122.680;2022-08-19T03:00:57;26.40;50.20
31867;DHT22;18431;45.580;-122.680;2022-08-19T03:03:27;26.50;50.60
31867;DHT22;18431;45.580;-122.680;2022-08-19T03:06:14;26.50;50.60
31867;DHT22;18431;45.580;-122.680;2022-08-19T03:08:46;26.50;50.80
31867;DHT22;18431;45.580;-122.680;2022-08-19T03:11:19;26.50;51.00
31867;DHT22;18431;45.580;-122.680;2022-08-19T03:13:50;26.60;50.60
31867;DHT22;18431;45.580;-122.680;2022-08-19T03:16:23;26.60;50.80
31867;DHT22;18431;45.580;-122.680;2022-08-19T03:18:53;26.60;50.50
31867;DHT22;18431;45.580;-122.680;2022-08-19T03:21:25;26.60;50.40
31867;DHT22;18431;45.580;-122.680;2022-08-19T03:23:55;26.40;50.30
31867;DHT22;18431;45.580;-122.680;2022-08-19T03:26:25;26.20;50.20
31867;DHT22;18431;45.580;-122.680;2022-08-19T03:28:57;26.00;50.10
31867;DHT22;18431;45.580;-122.680;2022-08-19T03:31:27;25.80;50.10
31867;DHT22;18431;45.580;-122.680;2022-08-19T03:33:57;25.70;50.30
31867;DHT22;18431;45.580;-122.680;2022-08-19T03:36:27;25.50;50.80
31867;DHT22;18431;45.580;-122.680;2022-08-19T03:39:00;25.50;51.00
31867;DHT22;18431;45.580;-122.680;2022-08-19T03:41:36;25.60;51.00
31867;DHT22;18431;45.580;-122.680;2022-08-19T03:44:06;25.70;51.20
31867;DHT22;18431;45.580;-122.680;2022-08-19T03:46:37;25.80;51.20
31867;DHT22;18431;45.580;-122.680;2022-08-19T03:49:06;25.80;50.90
31867;DHT22;18431;45.580;-122.680;2022-08-19T03:51:38;26.00;50.90
31867;DHT22;18431;45.580;-122.680;2022-08-19T03:54:11;26.10;50.90
31867;DHT22;18431;45.580;-122.680;2022-08-19T03:56:42;26.10;50.80
31867;DHT22;18431;45.580;-122.680;2022-08-19T03:59:15;26.20;50.50
31867;DHT22;18431;45.580;-122.680;2022-08-19T04:01:45;26.30;50.30
31867;DHT22;18431;45.580;-122.680;2022-08-19T04:04:15;26.30;50.20
31867;DHT22;18431;45.580;-122.680;2022-08-19T04:06:45;26.40;50.00
31867;DHT22;18431;45.580;-122.680;2022-08-19T04:09:15;26.40;49.80
31867;DHT22;18431;45.580;-122.680;2022-08-19T04:11:47;26.40;49.70
31867;DHT22;18431;45.580;-122.680;2022-08-19T04:14:21;26.50;50.10
31867;DHT22;18431;45.580;-122.680;2022-08-19T04:16:51;26.50;50.20
31867;DHT22;18431;45.580;-122.680;2022-08-19T04:19:22;26.60;50.30
31867;DHT22;18431;45.580;-122.680;2022-08-19T04:21:54;26.60;50.10
31867;DHT22;18431;45.580;-122.680;2022-08-19T04:24:25;26.60;50.00
31867;DHT22;18431;45.580;-122.680;2022-08-19T04:26:55;26.60;49.90
31867;DHT22;18431;45.580;-122.680;2022-08-19T04:29:25;26.60;49.80
31867;DHT22;18431;45.580;-122.680;2022-08-19T04:31:56;26.70;50.10
31867;DHT22;18431;45.580;-122.680;2022-08-19T04:34:27;26.70;50.30
31867;DHT22;18431;45.580;-122.680;2022-08-19T04:36:58;26.70;50.50
31867;DHT22;18431;45.580;-122.680;2022-08-19T04:39:30;26.70;50.70
31867;DHT22;18431;45.580;-122.680;2022-08-19T04:42:18;26.70;50.70
31867;DHT22;18431;45.580;-122.680;2022-08-19T04:45:13;26.50;50.60
31867;DHT22;18431;45.580;-122.680;2022-08-19T04:47:43;26.30;50.90
31867;DHT22;18431;45.580;-122.680;2022-08-19T04:50:13;26.10;50.80
31867;DHT22;18431;45.580;-122.680;2022-08-19T04:52:43;26.00;50.80
31867;DHT22;18431;45.580;-122.680;2022-08-19T04:55:13;25.80;49.90
31867;DHT22;18431;45.580;-122.680;2022-08-19T04:57:43;25.70;50.70
31867;DHT22;18431;45.580;-122.680;2022-08-19T05:00:13;25.70;50.60
31867;DHT22;18431;45.580;-122.680;2022-08-19T05:02:45;25.80;51.10
31867;DHT22;18431;45.580;-122.680;2022-08-19T05:05:15;25.90;51.30
31867;DHT22;18431;45.580;-122.680;2022-08-19T05:07:46;26.00;51.30
31867;DHT22;18431;45.580;-122.680;2022-08-19T05:10:16;26.00;51.40
31867;DHT22;18431;45.580;-122.680;2022-08-19T05:12:47;26.10;50.90
31867;DHT22;18431;45.580;-122.680;2022-08-19T05:15:16;26.20;51.10
31867;DHT22;18431;45.580;-122.680;2022-08-19T05:17:47;26.30;51.20
31867;DHT22;18431;45.580;-122.680;2022-08-19T05:20:18;26.30;51.20
31867;DHT22;18431;45.580;-122.680;2022-08-19T05:23:05;26.40;51.10
31867;DHT22;18431;45.580;-122.680;2022-08-19T05:25:38;26.50;51.20
31867;DHT22;18431;45.580;-122.680;2022-08-19T05:28:06;26.50;51.30
31867;DHT22;18431;45.580;-122.680;2022-08-19T05:30:36;26.60;51.00
31867;DHT22;18431;45.580;-122.680;2022-08-19T05:33:06;26.60;50.80
31867;DHT22;18431;45.580;-122.680;2022-08-19T05:35:38;26.70;51.00
31867;DHT22;18431;45.580;-122.680;2022-08-19T05:38:09;26.70;51.20
31867;DHT22;18431;45.580;-122.680;2022-08-19T05:40:40;26.70;50.70
31867;DHT22;18431;45.580;-122.680;2022-08-19T05:43:10;26.70;50.50
31867;DHT22;18431;45.580;-122.680;2022-08-19T05:45:40;26.80;50.80
31867;DHT22;18431;45.580;-122.680;2022-08-19T05:48:11;26.80;50.90
31867;DHT22;18431;45.580;-122.680;2022-08-19T05:50:42;26.90;50.50
31867;DHT22;18431;45.580;-122.680;2022-08-19T05:53:13;26.90;50.30
31867;DHT22;18431;45.580;-122.680;2022-08-19T05:55:44;27.00;50.60
31867;DHT22;18431;45.580;-122.680;2022-08-19T05:58:14;27.00;50.60
31867;DHT22;18431;45.580;-122.680;2022-08-19T06:00:44;27.00;50.60
31867;DHT22;18431;45.580;-122.680;2022-08-19T06:03:14;27.00;51.10
31867;DHT22;18431;45.580;-122.680;2022-08-19T06:05:44;27.00;51.10
31867;DHT22;18431;45.580;-122.680;2022-08-19T06:08:14;27.10;51.40
31867;DHT22;18431;45.580;-122.680;2022-08-19T06:10:45;27.10;51.60
31867;DHT22;18431;45.580;-122.680;2022-08-19T06:13:15;27.10;51.80
31867;DHT22;18431;45.580;-122.680;2022-08-19T06:15:46;27.10;52.00
31867;DHT22;18431;45.580;-122.680;2022-08-19T06:18:16;27.10;51.50
31867;DHT22;18431;45.580;-122.680;2022-08-19T06:20:46;27.10;51.20
31867;DHT22;18431;45.580;-122.680;2022-08-19T06:23:17;27.10;51.00
31867;DHT22;18431;45.580;-122.680;2022-08-19T06:25:48;27.10;50.80
31867;DHT22;18431;45.580;-122.680;2022-08-19T06:28:18;27.10;50.70
31867;DHT22;18431;45.580;-122.680;2022-08-19T06:30:48;27.10;50.50
31867;DHT22;18431;45.580;-122.680;2022-08-19T06:33:19;27.10;50.30
31867;DHT22;18431;45.580;-122.680;2022-08-19T06:35:49;27.20;50.30
31867;DHT22;18431;45.580;-122.680;2022-08-19T06:38:19;27.20;50.10
31867;DHT22;18431;45.580;-122.680;2022-08-19T06:40:50;27.20;50.00
31867;DHT22;18431;45.580;-122.680;2022-08-19T06:43:20;27.20;49.90
31867;DHT22;18431;45.580;-122.680;2022-08-19T06:45:51;27.20;50.10
31867;DHT22;18431;45.580;-122.680;2022-08-19T06:48:22;27.20;50.20
31867;DHT22;18431;45.580;-122.680;2022-08-19T06:51:10;27.20;50.40
31867;DHT22;18431;45.580;-122.680;2022-08-19T06:53:42;27.20;50.70
31867;DHT22;18431;45.580;-122.680;2022-08-19T06:56:14;27.20;50.90
31867;DHT22;18431;45.580;-122.680;2022-08-19T06:58:44;27.20;51.10
31867;DHT22;18431;45.580;-122.680;2022-08-19T07:01:15;27.20;51.40
31867;DHT22;18431;45.580;-122.680;2022-08-19T07:03:45;27.20;51.40
31867;DHT22;18431;45.580;-122.680;2022-08-19T07:06:17;27.20;51.60
31867;DHT22;18431;45.580;-122.680;2022-08-19T07:08:50;27.20;51.50
31867;DHT22;18431;45.580;-122.680;2022-08-19T07:14:09;27.20;51.10
31867;DHT22;18431;45.580;-122.680;2022-08-19T07:16:40;27.20;50.80
31867;DHT22;18431;45.580;-122.680;2022-08-19T07:19:10;27.20;50.60
31867;DHT22;18431;45.580;-122.680;2022-08-19T07:21:40;27.20;50.50
31867;DHT22;18431;45.580;-122.680;2022-08-19T07:24:11;27.30;50.40
31867;DHT22;18431;45.580;-122.680;2022-08-19T07:26:42;27.20;50.20
31867;DHT22;18431;45.580;-122.680;2022-08-19T07:29:12;27.20;50.10
31867;DHT22;18431;45.580;-122.680;2022-08-19T07:31:43;27.20;50.00
31867;DHT22;18431;45.580;-122.680;2022-08-19T07:34:13;27.30;50.00
31867;DHT22;18431;45.580;-122.680;2022-08-19T07:36:44;27.30;49.70
31867;DHT22;18431;45.580;-122.680;2022-08-19T07:39:20;27.30;49.70
31867;DHT22;18431;45.580;-122.680;2022-08-19T07:41:49;27.30;50.40
31867;DHT22;18431;45.580;-122.680;2022-08-19T07:44:22;27.30;49.90
31867;DHT22;18431;45.580;-122.680;2022-08-19T07:46:54;27.30;50.10
31867;DHT22;18431;45.580;-122.680;2022-08-19T07:49:24;27.30;50.40
31867;DHT22;18431;45.580;-122.680;2022-08-19T07:51:57;27.30;50.60
31867;DHT22;18431;45.580;-122.680;2022-08-19T07:54:27;27.30;50.70
31867;DHT22;18431;45.580;-122.680;2022-08-19T07:56:58;27.30;51.00
31867;DHT22;18431;45.580;-122.680;2022-08-19T07:59:28;27.30;51.20
31867;DHT22;18431;45.580;-122.680;2022-08-19T08:01:59;27.30;51.30
31867;DHT22;18431;45.580;-122.680;2022-08-19T08:04:30;27.30;51.40
31867;DHT22;18431;45.580;-122.680;2022-08-19T08:07:18;27.20;51.10
31867;DHT22;18431;45.580;-122.680;2022-08-19T08:10:07;27.20;50.80
31867;DHT22;18431;45.580;-122.680;2022-08-19T08:12:39;27.20;50.60
31867;DHT22;18431;45.580;-122.680;2022-08-19T08:15:14;27.20;50.50
31867;DHT22;18431;45.580;-122.680;2022-08-19T08:17:45;27.30;50.50
31867;DHT22;18431;45.580;-122.680;2022-08-19T08:20:16;27.20;50.30
31867;DHT22;18431;45.580;-122.680;2022-08-19T08:22:46;27.20;50.10
31867;DHT22;18431;45.580;-122.680;2022-08-19T08:25:35;27.30;50.10
31867;DHT22;18431;45.580;-122.680;2022-08-19T08:28:06;27.20;50.10
31867;DHT22;18431;45.580;-122.680;2022-08-19T08:30:37;27.20;49.80
31867;DHT22;18431;45.580;-122.680;2022-08-19T08:33:09;27.20;49.80
31867;DHT22;18431;45.580;-122.680;2022-08-19T08:35:40;27.30;49.70
31867;DHT22;18431;45.580;-122.680;2022-08-19T08:38:15;27.20;49.80
31867;DHT22;18431;45.580;-122.680;2022-08-19T08:40:48;27.30;50.00
31867;DHT22;18431;45.580;-122.680;2022-08-19T08:43:40;27.30;50.20
31867;DHT22;18431;45.580;-122.680;2022-08-19T08:46:13;27.30;50.50
31867;DHT22;18431;45.580;-122.680;2022-08-19T08:49:16;27.30;50.70
31867;DHT22;18431;45.580;-122.680;2022-08-19T08:51:46;27.30;50.90
31867;DHT22;18431;45.580;-122.680;2022-08-19T08:54:16;27.30;51.10
31867;DHT22;18431;45.580;-122.680;2022-08-19T08:56:46;27.20;51.30
31867;DHT22;18431;45.580;-122.680;2022-08-19T08:59:26;27.20;51.10
31867;DHT22;18431;45.580;-122.680;2022-08-19T09:01:55;27.20;50.70
31867;DHT22;18431;45.580;-122.680;2022-08-19T09:04:27;27.20;50.60
31867;DHT22;18431;45.580;-122.680;2022-08-19T09:09:51;27.30;50.40
31867;DHT22;18431;45.580;-122.680;2022-08-19T09:12:25;27.30;50.20
31867;DHT22;18431;45.580;-122.680;2022-08-19T09:15:07;27.30;50.10
31867;DHT22;18431;45.580;-122.680;2022-08-19T09:17:33;27.30;49.90
31867;DHT22;18431;45.580;-122.680;2022-08-19T09:20:06;27.30;49.80
31867;DHT22;18431;45.580;-122.680;2022-08-19T09:22:37;27.30;49.70
31867;DHT22;18431;45.580;-122.680;2022-08-19T09:25:10;27.30;49.60
31867;DHT22;18431;45.580;-122.680;2022-08-19T09:27:40;27.30;49.80
31867;DHT22;18431;45.580;-122.680;2022-08-19T09:30:19;27.30;49.80
31867;DHT22;18431;45.580;-122.680;2022-08-19T09:32:43;27.30;50.10
31867;DHT22;18431;45.580;-122.680;2022-08-19T09:35:13;27.40;50.30
31867;DHT22;18431;45.580;-122.680;2022-08-19T09:37:43;27.30;50.60
31867;DHT22;18431;45.580;-122.680;2022-08-19T09:40:13;27.40;50.80
31867;DHT22;18431;45.580;-122.680;2022-08-19T09:42:43;27.40;51.00
31867;DHT22;18431;45.580;-122.680;2022-08-19T09:45:17;27.30;51.00
31867;DHT22;18431;45.580;-122.680;2022-08-19T09:47:50;27.40;50.90
31867;DHT22;18431;45.580;-122.680;2022-08-19T09:50:22;27.40;50.60
31867;DHT22;18431;45.580;-122.680;2022-08-19T09:53:10;27.30;50.20
31867;DHT22;18431;45.580;-122.680;2022-08-19T09:55:45;27.30;50.10
31867;DHT22;18431;45.580;-122.680;2022-08-19T09:58:15;27.40;50.00
31867;DHT22;18431;45.580;-122.680;2022-08-19T10:00:45;27.30;49.80
31867;DHT22;18431;45.580;-122.680;2022-08-19T10:03:14;27.40;49.80
31867;DHT22;18431;45.580;-122.680;2022-08-19T10:05:44;27.30;49.60
31867;DHT22;18431;45.580;-122.680;2022-08-19T10:08:19;27.40;49.60
31867;DHT22;18431;45.580;-122.680;2022-08-19T10:10:49;27.30;49.50
31867;DHT22;18431;45.580;-122.680;2022-08-19T10:13:21;27.40;49.50
31867;DHT22;18431;45.580;-122.680;2022-08-19T10:15:54;27.40;49.30
31867;DHT22;18431;45.580;-122.680;2022-08-19T10:18:25;27.40;49.60
31867;DHT22;18431;45.580;-122.680;2022-08-19T10:21:02;27.40;49.60
31867;DHT22;18431;45.580;-122.680;2022-08-19T10:23:27;27.40;49.80
31867;DHT22;18431;45.580;-122.680;2022-08-19T10:25:59;27.40;50.10
31867;DHT22;18431;45.580;-122.680;2022-08-19T10:28:31;27.40;50.40
31867;DHT22;18431;45.580;-122.680;2022-08-19T10:31:11;27.40;50.60
31867;DHT22;18431;45.580;-122.680;2022-08-19T10:33:36;27.40;50.80
31867;DHT22;18431;45.580;-122.680;2022-08-19T10:36:13;27.40;50.90
31867;DHT22;18431;45.580;-122.680;2022-08-19T10:38:44;27.40;50.90
31867;DHT22;18431;45.580;-122.680;2022-08-19T10:41:17;27.40;50.60
31867;DHT22;18431;45.580;-122.680;2022-08-19T10:43:47;27.40;50.30
31867;DHT22;18431;45.580;-122.680;2022-08-19T10:46:16;27.40;50.20
31867;DHT22;18431;45.580;-122.680;2022-08-19T10:48:47;27.40;50.00
31867;DHT22;18431;45.580;-122.680;2022-08-19T10:51:17;27.40;49.80
31867;DHT22;18431;45.580;-122.680;2022-08-19T10:54:05;27.40;49.80
31867;DHT22;18431;45.580;-122.680;2022-08-19T10:56:35;27.40;49.70
31867;DHT22;18431;45.580;-122.680;2022-08-19T10:59:26;27.40;49.60
31867;DHT22;18431;45.580;-122.680;2022-08-19T11:02:00;27.40;49.60
31867;DHT22;18431;45.580;-122.680;2022-08-19T11:04:31;27.40;49.60
31867;DHT22;18431;45.580;-122.680;2022-08-19T11:07:02;27.40;49.40
31867;DHT22;18431;45.580;-122.680;2022-08-19T11:09:36;27.40;49.50
31867;DHT22;18431;45.580;-122.680;2022-08-19T11:12:03;27.40;49.60
31867;DHT22;18431;45.580;-122.680;2022-08-19T11:14:34;27.40;49.80
31867;DHT22;18431;45.580;-122.680;2022-08-19T11:17:05;27.40;50.10
31867;DHT22;18431;45.580;-122.680;2022-08-19T11:19:35;27.40;50.30
31867;DHT22;18431;45.580;-122.680;2022-08-19T11:22:07;27.40;50.50
31867;DHT22;18431;45.580;-122.680;2022-08-19T11:24:38;27.40;50.70
31867;DHT22;18431;45.580;-122.680;2022-08-19T11:27:09;27.40;50.80
31867;DHT22;18431;45.580;-122.680;2022-08-19T11:29:39;27.40;50.80
31867;DHT22;18431;45.580;-122.680;2022-08-19T11:32:10;27.40;50.60
31867;DHT22;18431;45.580;-122.680;2022-08-19T11:34:41;27.40;50.90
31867;DHT22;18431;45.580;-122.680;2022-08-19T11:37:11;27.40;50.10
31867;DHT22;18431;45.580;-122.680;2022-08-19T11:39:40;27.40;49.90
31867;DHT22;18431;45.580;-122.680;2022-08-19T11:42:10;27.40;49.70
31867;DHT22;18431;45.580;-122.680;2022-08-19T11:44:58;27.40;49.60
31867;DHT22;18431;45.580;-122.680;2022-08-19T11:47:29;27.40;49.60
31867;DHT22;18431;45.580;-122.680;2022-08-19T11:50:00;27.40;49.60
31867;DHT22;18431;45.580;-122.680;2022-08-19T11:52:30;27.40;49.40
31867;DHT22;18431;45.580;-122.680;2022-08-19T11:55:02;27.40;49.40
31867;DHT22;18431;45.580;-122.680;2022-08-19T11:57:31;27.40;49.30
31867;DHT22;18431;45.580;-122.680;2022-08-19T12:00:01;27.40;49.30
31867;DHT22;18431;45.580;-122.680;2022-08-19T12:02:31;27.40;49.40
31867;DHT22;18431;45.580;-122.680;2022-08-19T12:05:01;27.40;49.70
31867;DHT22;18431;45.580;-122.680;2022-08-19T12:07:33;27.40;49.80
31867;DHT22;18431;45.580;-122.680;2022-08-19T12:10:03;27.40;50.00
31867;DHT22;18431;45.580;-122.680;2022-08-19T12:12:33;27.40;50.20
31867;DHT22;18431;45.580;-122.680;2022-08-19T12:15:03;27.40;50.40
31867;DHT22;18431;45.580;-122.680;2022-08-19T12:17:33;27.40;50.60
31867;DHT22;18431;45.580;-122.680;2022-08-19T12:20:04;27.40;50.80
31867;DHT22;18431;45.580;-122.680;2022-08-19T12:22:35;27.40;50.70
31867;DHT22;18431;45.580;-122.680;2022-08-19T12:25:05;27.40;50.50
31867;DHT22;18431;45.580;-122.680;2022-08-19T12:27:35;27.40;50.20
31867;DHT22;18431;45.580;-122.680;2022-08-19T12:30:07;27.40;50.00
31867;DHT22;18431;45.580;-122.680;2022-08-19T12:32:56;27.40;49.80
31867;DHT22;18431;45.580;-122.680;2022-08-19T12:35:25;27.40;49.70
31867;DHT22;18431;45.580;-122.680;2022-08-19T12:37:55;27.40;49.70
31867;DHT22;18431;45.580;-122.680;2022-08-19T12:40:26;27.40;49.60
31867;DHT22;18431;45.580;-122.680;2022-08-19T12:42:56;27.40;49.50
31867;DHT22;18431;45.580;-122.680;2022-08-19T12:45:27;27.40;49.30
31867;DHT22;18431;45.580;-122.680;2022-08-19T12:47:58;27.40;49.30
31867;DHT22;18431;45.580;-122.680;2022-08-19T12:50:28;27.40;49.20
31867;DHT22;18431;45.580;-122.680;2022-08-19T12:53:00;27.40;49.30
31867;DHT22;18431;45.580;-122.680;2022-08-19T12:55:32;27.40;49.50
31867;DHT22;18431;45.580;-122.680;2022-08-19T12:58:01;27.40;49.40
31867;DHT22;18431;45.580;-122.680;2022-08-19T13:00:31;27.40;49.30
31867;DHT22;18431;45.580;-122.680;2022-08-19T13:03:01;27.40;49.20
31867;DHT22;18431;45.580;-122.680;2022-08-19T13:05:32;27.40;49.30
31867;DHT22;18431;45.580;-122.680;2022-08-19T13:08:03;27.40;49.40
31867;DHT22;18431;45.580;-122.680;2022-08-19T13:10:35;27.40;49.70
31867;DHT22;18431;45.580;-122.680;2022-08-19T13:13:07;27.40;49.90
31867;DHT22;18431;45.580;-122.680;2022-08-19T13:15:39;27.40;50.20
31867;DHT22;18431;45.580;-122.680;2022-08-19T13:18:10;27.40;50.40
31867;DHT22;18431;45.580;-122.680;2022-08-19T13:20:41;27.40;50.40
31867;DHT22;18431;45.580;-122.680;2022-08-19T13:23:11;27.40;50.30
31867;DHT22;18431;45.580;-122.680;2022-08-19T13:25:42;27.40;50.10
31867;DHT22;18431;45.580;-122.680;2022-08-19T13:28:12;27.40;49.80
31867;DHT22;18431;45.580;-122.680;2022-08-19T13:30:46;27.40;49.60
31867;DHT22;18431;45.580;-122.680;2022-08-19T13:33:31;27.40;49.60
31867;DHT22;18431;45.580;-122.680;2022-08-19T13:36:02;27.40;49.50
31867;DHT22;18431;45.580;-122.680;2022-08-19T13:38:33;27.40;49.50
31867;DHT22;18431;45.580;-122.680;2022-08-19T13:41:06;27.40;49.40
31867;DHT22;18431;45.580;-122.680;2022-08-19T13:43:36;27.40;49.30
31867;DHT22;18431;45.580;-122.680;2022-08-19T13:46:10;27.40;49.30
31867;DHT22;18431;45.580;-122.680;2022-08-19T13:48:42;27.40;49.50
31867;DHT22;18431;45.580;-122.680;2022-08-19T13:51:31;27.40;49.60
31867;DHT22;18431;45.580;-122.680;2022-08-19T13:54:01;27.40;49.90
31867;DHT22;18431;45.580;-122.680;2022-08-19T13:56:31;27.40;50.20
31867;DHT22;18431;45.580;-122.680;2022-08-19T13:59:01;27.40;50.40
31867;DHT22;18431;45.580;-122.680;2022-08-19T14:01:30;27.40;50.60
31867;DHT22;18431;45.580;-122.680;2022-08-19T14:04:01;27.40;50.60
31867;DHT22;18431;45.580;-122.680;2022-08-19T14:06:31;27.40;50.20
31867;DHT22;18431;45.580;-122.680;2022-08-19T14:09:02;27.40;50.00
31867;DHT22;18431;45.580;-122.680;2022-08-19T14:11:32;27.30;49.70
31867;DHT22;18431;45.580;-122.680;2022-08-19T14:14:01;27.40;49.60
31867;DHT22;18431;45.580;-122.680;2022-08-19T14:16:31;27.30;49.40
31867;DHT22;18431;45.580;-122.680;2022-08-19T14:19:00;27.30;49.30
31867;DHT22;18431;45.580;-122.680;2022-08-19T14:21:30;27.40;49.60
31867;DHT22;18431;45.580;-122.680;2022-08-19T14:23:59;27.40;49.60
31867;DHT22;18431;45.580;-122.680;2022-08-19T14:26:29;27.40;49.90
31867;DHT22;18431;45.580;-122.680;2022-08-19T14:28:59;27.40;50.10
31867;DHT22;18431;45.580;-122.680;2022-08-19T14:31:29;27.40;50.30
31867;DHT22;18431;45.580;-122.680;2022-08-19T14:33:58;27.40;50.30
31867;DHT22;18431;45.580;-122.680;2022-08-19T14:36:28;27.40;50.60
31867;DHT22;18431;45.580;-122.680;2022-08-19T14:38:59;27.40;50.80
31867;DHT22;18431;45.580;-122.680;2022-08-19T14:41:29;27.40;51.40
31867;DHT22;18431;45.580;-122.680;2022-08-19T14:44:02;27.40;50.40
31867;DHT22;18431;45.580;-122.680;2022-08-19T14:46:31;27.40;50.20
31867;DHT22;18431;45.580;-122.680;2022-08-19T14:49:01;27.30;50.00
31867;DHT22;18431;45.580;-122.680;2022-08-19T14:51:30;27.30;50.00
31867;DHT22;18431;45.580;-122.680;2022-08-19T14:54:00;27.30;49.80
31867;DHT22;18431;45.580;-122.680;2022-08-19T14:56:30;27.40;49.70
31867;DHT22;18431;45.580;-122.680;2022-08-19T14:58:59;27.40;49.80
31867;DHT22;18431;45.580;-122.680;2022-08-19T15:01:29;27.40;49.50
31867;DHT22;18431;45.580;-122.680;2022-08-19T15:03:59;27.40;50.10
31867;DHT22;18431;45.580;-122.680;2022-08-19T15:06:28;27.40;49.80
31867;DHT22;18431;45.580;-122.680;2022-08-19T15:08:59;27.40;49.90
31867;DHT22;18431;45.580;-122.680;2022-08-19T15:11:30;27.40;50.10
31867;DHT22;18431;45.580;-122.680;2022-08-19T15:14:00;27.40;50.50
31867;DHT22;18431;45.580;-122.680;2022-08-19T15:16:31;27.40;50.60
31867;DHT22;18431;45.580;-122.680;2022-08-19T15:19:00;27.40;50.80
31867;DHT22;18431;45.580;-122.680;2022-08-19T15:21:30;27.40;50.90
31867;DHT22;18431;45.580;-122.680;2022-08-19T15:24:00;27.40;51.00